sensor_id;sensor_type;location;lat;lon;timestamp;P1;durP1;ratioP1;P2;durP2;ratioP2
48727;SDS011;34527;45.618;5.130;2023-02-14T00:01:57;84.38;;;42.92;;
48727;SDS011;34527;45.618;5.130;2023-02-14T00:04:24;44.65;;;25.02;;
48727;SDS011;34527;45.618;5.130;2023-02-14T00:06:49;62.67;;;34.20;;
48727;SDS011;34527;45.618;5.130;2023-02-14T00:09:16;53.25;;;29.95;;
48727;SDS011;34527;45.618;5.130;2023-02-14T00:11:43;43.67;;;25.63;;
48727;SDS011;34527;45.618;5.130;2023-02-14T00:14:09;64.38;;;33.30;;
48727;SDS011;34527;45.618;5.130;2023-02-14T00:16:54;91.63;;;43.28;;
48727;SDS011;34527;45.618;5.130;2023-02-14T00:19:20;78.10;;;37.70;;
48727;SDS011;34527;45.618;5.130;2023-02-14T00:21:46;96.40;;;43.05;;
48727;SDS011;34527;45.618;5.130;2023-02-14T00:24:13;95.78;;;46.95;;
48727;SDS011;34527;45.618;5.130;2023-02-14T00:26:40;53.15;;;30.48;;
48727;SDS011;34527;45.618;5.130;2023-02-14T00:29:07;46.00;;;27.50;;
48727;SDS011;34527;45.618;5.130;2023-02-14T00:31:34;37.20;;;21.65;;
48727;SDS011;34527;45.618;5.130;2023-02-14T00:34:01;37.53;;;22.67;;
48727;SDS011;34527;45.618;5.130;2023-02-14T00:36:27;42.00;;;23.20;;
48727;SDS011;34527;45.618;5.130;2023-02-14T00:38:52;32.22;;;19.88;;
48727;SDS011;34527;45.618;5.130;2023-02-14T00:41:18;29.95;;;18.52;;
48727;SDS011;34527;45.618;5.130;2023-02-14T00:43:47;45.95;;;26.33;;
48727;SDS011;34527;45.618;5.130;2023-02-14T00:46:15;37.58;;;22.08;;
48727;SDS011;34527;45.618;5.130;2023-02-14T00:48:41;39.28;;;21.90;;
48727;SDS011;34527;45.618;5.130;2023-02-14T00:51:07;51.35;;;29.02;;
48727;SDS011;34527;45.618;5.130;2023-02-14T00:53:33;36.28;;;20.30;;
48727;SDS011;34527;45.618;5.130;2023-02-14T00:55:59;40.22;;;22.75;;
48727;SDS011;34527;45.618;5.130;2023-02-14T00:58:25;35.47;;;19.90;;
48727;SDS011;34527;45.618;5.130;2023-02-14T01:00:51;36.78;;;20.50;;
48727;SDS011;34527;45.618;5.130;2023-02-14T01:03:17;46.38;;;23.25;;
48727;SDS011;34527;45.618;5.130;2023-02-14T01:05:42;35.47;;;20.15;;
48727;SDS011;34527;45.618;5.130;2023-02-14T01:08:08;34.03;;;18.90;;
48727;SDS011;34527;45.618;5.130;2023-02-14T01:10:37;34.03;;;19.90;;
48727;SDS011;34527;45.618;5.130;2023-02-14T01:13:03;47.63;;;25.17;;
48727;SDS011;34527;45.618;5.130;2023-02-14T01:15:29;35.55;;;19.42;;
48727;SDS011;34527;45.618;5.130;2023-02-14T01:17:56;34.47;;;19.55;;
48727;SDS011;34527;45.618;5.130;2023-02-14T01:20:22;34.28;;;19.30;;
48727;SDS011;34527;45.618;5.130;2023-02-14T01:22:48;39.65;;;21.48;;
48727;SDS011;34527;45.618;5.130;2023-02-14T01:25:13;38.20;;;19.30;;
48727;SDS011;34527;45.618;5.130;2023-02-14T01:27:39;35.97;;;19.02;;
48727;SDS011;34527;45.618;5.130;2023-02-14T01:30:05;38.33;;;20.83;;
48727;SDS011;34527;45.618;5.130;2023-02-14T01:32:32;37.65;;;21.88;;
48727;SDS011;34527;45.618;5.130;2023-02-14T01:34:58;36.60;;;20.65;;
48727;SDS011;34527;45.618;5.130;2023-02-14T01:37:24;40.55;;;22.55;;
48727;SDS011;34527;45.618;5.130;2023-02-14T01:39:50;41.72;;;23.45;;
48727;SDS011;34527;45.618;5.130;2023-02-14T01:42:15;44.30;;;24.50;;
48727;SDS011;34527;45.618;5.130;2023-02-14T01:47:09;48.03;;;24.52;;
48727;SDS011;34527;45.618;5.130;2023-02-14T01:49:37;45.20;;;25.55;;
48727;SDS011;34527;45.618;5.130;2023-02-14T01:52:16;48.78;;;26.48;;
48727;SDS011;34527;45.618;5.130;2023-02-14T01:55:09;45.83;;;24.73;;
48727;SDS011;34527;45.618;5.130;2023-02-14T01:57:39;49.35;;;26.55;;
48727;SDS011;34527;45.618;5.130;2023-02-14T02:00:18;48.58;;;25.40;;
48727;SDS011;34527;45.618;5.130;2023-02-14T02:05:29;41.33;;;24.10;;
48727;SDS011;34527;45.618;5.130;2023-02-14T02:07:55;57.08;;;30.40;;
48727;SDS011;34527;45.618;5.130;2023-02-14T02:10:23;58.70;;;28.92;;
48727;SDS011;34527;45.618;5.130;2023-02-14T02:12:49;51.83;;;27.05;;
48727;SDS011;34527;45.618;5.130;2023-02-14T02:15:16;44.10;;;24.92;;
48727;SDS011;34527;45.618;5.130;2023-02-14T02:29:19;55.10;;;27.77;;
48727;SDS011;34527;45.618;5.130;2023-02-14T02:35:19;44.80;;;24.73;;
48727;SDS011;34527;45.618;5.130;2023-02-14T02:40:56;42.15;;;22.55;;
48727;SDS011;34527;45.618;5.130;2023-02-14T02:48:55;40.25;;;22.73;;
48727;SDS011;34527;45.618;5.130;2023-02-14T02:51:25;40.50;;;23.48;;
48727;SDS011;34527;45.618;5.130;2023-02-14T02:54:43;37.70;;;22.27;;
48727;SDS011;34527;45.618;5.130;2023-02-14T02:57:31;50.10;;;26.85;;
48727;SDS011;34527;45.618;5.130;2023-02-14T03:00:01;43.28;;;23.98;;
48727;SDS011;34527;45.618;5.130;2023-02-14T03:02:30;40.33;;;23.55;;
48727;SDS011;34527;45.618;5.130;2023-02-14T03:05:19;47.40;;;23.60;;
48727;SDS011;34527;45.618;5.130;2023-02-14T03:07:47;40.78;;;22.73;;
48727;SDS011;34527;45.618;5.130;2023-02-14T03:21:30;41.55;;;21.75;;
48727;SDS011;34527;45.618;5.130;2023-02-14T03:26:48;39.13;;;21.88;;
48727;SDS011;34527;45.618;5.130;2023-02-14T03:34:59;37.65;;;20.92;;
48727;SDS011;34527;45.618;5.130;2023-02-14T03:40:21;39.63;;;20.80;;
48727;SDS011;34527;45.618;5.130;2023-02-14T03:42:53;37.80;;;21.77;;
48727;SDS011;34527;45.618;5.130;2023-02-14T03:45:28;41.42;;;21.20;;
48727;SDS011;34527;45.618;5.130;2023-02-14T03:47:59;42.50;;;21.65;;
48727;SDS011;34527;45.618;5.130;2023-02-14T03:50:28;36.13;;;21.50;;
48727;SDS011;34527;45.618;5.130;2023-02-14T03:52:56;36.75;;;21.67;;
48727;SDS011;34527;45.618;5.130;2023-02-14T03:55:34;40.15;;;21.75;;
48727;SDS011;34527;45.618;5.130;2023-02-14T03:58:09;37.10;;;20.80;;
48727;SDS011;34527;45.618;5.130;2023-02-14T04:00:49;36.55;;;20.73;;
48727;SDS011;34527;45.618;5.130;2023-02-14T04:03:19;36.28;;;20.55;;
48727;SDS011;34527;45.618;5.130;2023-02-14T04:05:47;40.03;;;20.90;;
48727;SDS011;34527;45.618;5.130;2023-02-14T04:08:20;37.05;;;20.40;;
48727;SDS011;34527;45.618;5.130;2023-02-14T04:10:48;36.58;;;20.48;;
48727;SDS011;34527;45.618;5.130;2023-02-14T04:13:15;35.65;;;20.20;;
48727;SDS011;34527;45.618;5.130;2023-02-14T04:15:40;41.35;;;21.95;;
48727;SDS011;34527;45.618;5.130;2023-02-14T04:18:07;37.65;;;20.67;;
48727;SDS011;34527;45.618;5.130;2023-02-14T04:20:51;35.95;;;20.52;;
48727;SDS011;34527;45.618;5.130;2023-02-14T04:23:17;38.83;;;20.52;;
48727;SDS011;34527;45.618;5.130;2023-02-14T04:25:42;36.47;;;20.75;;
48727;SDS011;34527;45.618;5.130;2023-02-14T04:28:09;36.85;;;20.58;;
48727;SDS011;34527;45.618;5.130;2023-02-14T04:30:35;36.08;;;21.23;;
48727;SDS011;34527;45.618;5.130;2023-02-14T04:33:01;39.13;;;20.73;;
48727;SDS011;34527;45.618;5.130;2023-02-14T04:35:28;36.22;;;20.92;;
48727;SDS011;34527;45.618;5.130;2023-02-14T04:37:53;36.45;;;20.20;;
48727;SDS011;34527;45.618;5.130;2023-02-14T04:40:19;36.40;;;21.17;;
48727;SDS011;34527;45.618;5.130;2023-02-14T04:42:45;39.35;;;22.55;;
48727;SDS011;34527;45.618;5.130;2023-02-14T04:45:11;36.60;;;20.25;;
48727;SDS011;34527;45.618;5.130;2023-02-14T04:47:37;36.25;;;19.55;;
48727;SDS011;34527;45.618;5.130;2023-02-14T04:50:03;40.22;;;21.45;;
48727;SDS011;34527;45.618;5.130;2023-02-14T04:52:29;39.70;;;20.52;;
48727;SDS011;34527;45.618;5.130;2023-02-14T04:54:54;32.67;;;19.73;;
48727;SDS011;34527;45.618;5.130;2023-02-14T04:57:20;37.22;;;19.88;;
48727;SDS011;34527;45.618;5.130;2023-02-14T04:59:46;34.45;;;20.10;;
48727;SDS011;34527;45.618;5.130;2023-02-14T05:02:11;36.40;;;20.23;;
48727;SDS011;34527;45.618;5.130;2023-02-14T05:04:37;36.03;;;21.30;;
48727;SDS011;34527;45.618;5.130;2023-02-14T05:07:02;38.53;;;20.58;;
48727;SDS011;34527;45.618;5.130;2023-02-14T05:09:28;32.88;;;19.25;;
48727;SDS011;34527;45.618;5.130;2023-02-14T05:11:54;37.20;;;20.33;;
48727;SDS011;34527;45.618;5.130;2023-02-14T05:14:19;35.35;;;19.40;;
48727;SDS011;34527;45.618;5.130;2023-02-14T05:16:45;38.75;;;20.42;;
48727;SDS011;34527;45.618;5.130;2023-02-14T05:19:11;39.25;;;20.15;;
48727;SDS011;34527;45.618;5.130;2023-02-14T05:21:36;42.95;;;20.95;;
48727;SDS011;34527;45.618;5.130;2023-02-14T05:24:02;41.80;;;21.35;;
48727;SDS011;34527;45.618;5.130;2023-02-14T05:26:28;41.75;;;20.55;;
48727;SDS011;34527;45.618;5.130;2023-02-14T05:28:54;44.70;;;25.55;;
48727;SDS011;34527;45.618;5.130;2023-02-14T05:31:20;37.72;;;22.58;;
48727;SDS011;34527;45.618;5.130;2023-02-14T05:33:46;37.08;;;20.00;;
48727;SDS011;34527;45.618;5.130;2023-02-14T05:36:12;39.08;;;20.88;;
48727;SDS011;34527;45.618;5.130;2023-02-14T05:38:37;39.65;;;21.38;;
48727;SDS011;34527;45.618;5.130;2023-02-14T05:41:03;43.38;;;23.60;;
48727;SDS011;34527;45.618;5.130;2023-02-14T05:43:29;41.95;;;23.60;;
48727;SDS011;34527;45.618;5.130;2023-02-14T05:45:55;38.95;;;20.48;;
48727;SDS011;34527;45.618;5.130;2023-02-14T05:48:21;43.13;;;21.17;;
48727;SDS011;34527;45.618;5.130;2023-02-14T05:50:47;47.60;;;23.88;;
48727;SDS011;34527;45.618;5.130;2023-02-14T05:53:12;36.70;;;21.77;;
48727;SDS011;34527;45.618;5.130;2023-02-14T05:55:38;36.40;;;22.02;;
48727;SDS011;34527;45.618;5.130;2023-02-14T05:58:04;39.58;;;21.45;;
48727;SDS011;34527;45.618;5.130;2023-02-14T06:00:30;39.95;;;22.42;;
48727;SDS011;34527;45.618;5.130;2023-02-14T06:02:56;38.05;;;21.33;;
48727;SDS011;34527;45.618;5.130;2023-02-14T06:05:22;42.53;;;23.20;;
48727;SDS011;34527;45.618;5.130;2023-02-14T06:07:48;44.55;;;22.40;;
48727;SDS011;34527;45.618;5.130;2023-02-14T06:10:17;35.22;;;21.23;;
48727;SDS011;34527;45.618;5.130;2023-02-14T06:12:44;39.60;;;23.23;;
48727;SDS011;34527;45.618;5.130;2023-02-14T06:15:11;39.08;;;21.70;;
48727;SDS011;34527;45.618;5.130;2023-02-14T06:17:37;38.97;;;21.92;;
48727;SDS011;34527;45.618;5.130;2023-02-14T06:20:03;40.70;;;22.08;;
48727;SDS011;34527;45.618;5.130;2023-02-14T06:22:29;39.33;;;21.27;;
48727;SDS011;34527;45.618;5.130;2023-02-14T06:24:55;43.58;;;23.35;;
48727;SDS011;34527;45.618;5.130;2023-02-14T06:27:20;38.85;;;23.15;;
48727;SDS011;34527;45.618;5.130;2023-02-14T06:29:46;41.40;;;22.02;;
48727;SDS011;34527;45.618;5.130;2023-02-14T06:32:12;39.65;;;20.00;;
48727;SDS011;34527;45.618;5.130;2023-02-14T06:34:37;40.22;;;21.65;;
48727;SDS011;34527;45.618;5.130;2023-02-14T06:37:04;45.83;;;23.13;;
48727;SDS011;34527;45.618;5.130;2023-02-14T06:39:31;40.30;;;22.02;;
48727;SDS011;34527;45.618;5.130;2023-02-14T06:41:57;40.90;;;23.88;;
48727;SDS011;34527;45.618;5.130;2023-02-14T06:44:22;50.53;;;28.90;;
48727;SDS011;34527;45.618;5.130;2023-02-14T06:46:48;51.55;;;27.95;;
48727;SDS011;34527;45.618;5.130;2023-02-14T06:49:14;44.85;;;26.38;;
48727;SDS011;34527;45.618;5.130;2023-02-14T06:51:39;45.17;;;23.70;;
48727;SDS011;34527;45.618;5.130;2023-02-14T06:54:05;42.78;;;24.58;;
48727;SDS011;34527;45.618;5.130;2023-02-14T06:56:30;45.85;;;25.98;;
48727;SDS011;34527;45.618;5.130;2023-02-14T06:58:56;88.68;;;44.70;;
48727;SDS011;34527;45.618;5.130;2023-02-14T07:01:22;61.38;;;30.40;;
48727;SDS011;34527;45.618;5.130;2023-02-14T07:03:47;119.75;;;58.65;;
48727;SDS011;34527;45.618;5.130;2023-02-14T07:06:13;119.05;;;58.30;;
48727;SDS011;34527;45.618;5.130;2023-02-14T07:08:38;49.20;;;27.90;;
48727;SDS011;34527;45.618;5.130;2023-02-14T07:11:04;58.33;;;31.88;;
48727;SDS011;34527;45.618;5.130;2023-02-14T07:13:30;45.28;;;25.75;;
48727;SDS011;34527;45.618;5.130;2023-02-14T07:15:55;48.33;;;25.60;;
48727;SDS011;34527;45.618;5.130;2023-02-14T07:18:21;45.13;;;21.92;;
48727;SDS011;34527;45.618;5.130;2023-02-14T07:20:48;43.15;;;23.45;;
48727;SDS011;34527;45.618;5.130;2023-02-14T07:23:14;40.60;;;23.63;;
48727;SDS011;34527;45.618;5.130;2023-02-14T07:25:40;51.17;;;29.40;;
48727;SDS011;34527;45.618;5.130;2023-02-14T07:28:05;58.17;;;36.95;;
48727;SDS011;34527;45.618;5.130;2023-02-14T07:30:31;64.00;;;39.10;;
48727;SDS011;34527;45.618;5.130;2023-02-14T07:32:57;67.15;;;34.85;;
48727;SDS011;34527;45.618;5.130;2023-02-14T07:35:22;55.58;;;32.20;;
48727;SDS011;34527;45.618;5.130;2023-02-14T07:37:49;50.28;;;29.00;;
48727;SDS011;34527;45.618;5.130;2023-02-14T07:40:15;49.45;;;28.98;;
48727;SDS011;34527;45.618;5.130;2023-02-14T07:42:40;47.10;;;28.05;;
48727;SDS011;34527;45.618;5.130;2023-02-14T07:45:06;44.50;;;24.98;;
48727;SDS011;34527;45.618;5.130;2023-02-14T07:47:32;49.17;;;28.65;;
48727;SDS011;34527;45.618;5.130;2023-02-14T07:49:58;52.35;;;28.83;;
48727;SDS011;34527;45.618;5.130;2023-02-14T07:52:23;57.70;;;28.45;;
48727;SDS011;34527;45.618;5.130;2023-02-14T07:54:49;46.22;;;26.35;;
48727;SDS011;34527;45.618;5.130;2023-02-14T07:57:15;41.72;;;24.05;;
48727;SDS011;34527;45.618;5.130;2023-02-14T07:59:40;48.05;;;24.63;;
48727;SDS011;34527;45.618;5.130;2023-02-14T08:02:06;47.78;;;24.70;;
48727;SDS011;34527;45.618;5.130;2023-02-14T08:04:33;43.20;;;24.40;;
48727;SDS011;34527;45.618;5.130;2023-02-14T08:06:58;41.15;;;23.40;;
48727;SDS011;34527;45.618;5.130;2023-02-14T08:09:24;40.83;;;23.40;;
48727;SDS011;34527;45.618;5.130;2023-02-14T08:11:50;34.85;;;21.13;;
48727;SDS011;34527;45.618;5.130;2023-02-14T08:14:35;38.20;;;21.08;;
48727;SDS011;34527;45.618;5.130;2023-02-14T08:17:01;36.75;;;20.55;;
48727;SDS011;34527;45.618;5.130;2023-02-14T08:19:27;35.80;;;21.90;;
48727;SDS011;34527;45.618;5.130;2023-02-14T08:21:53;38.10;;;20.45;;
48727;SDS011;34527;45.618;5.130;2023-02-14T08:24:19;34.78;;;20.02;;
48727;SDS011;34527;45.618;5.130;2023-02-14T08:26:44;37.30;;;20.70;;
48727;SDS011;34527;45.618;5.130;2023-02-14T08:29:10;37.70;;;21.15;;
48727;SDS011;34527;45.618;5.130;2023-02-14T08:31:35;39.70;;;21.88;;
48727;SDS011;34527;45.618;5.130;2023-02-14T08:34:04;36.30;;;20.90;;
48727;SDS011;34527;45.618;5.130;2023-02-14T08:36:31;36.40;;;20.40;;
48727;SDS011;34527;45.618;5.130;2023-02-14T08:38:57;40.03;;;21.77;;
48727;SDS011;34527;45.618;5.130;2023-02-14T08:41:22;35.25;;;19.67;;
48727;SDS011;34527;45.618;5.130;2023-02-14T08:43:48;39.92;;;20.90;;
48727;SDS011;34527;45.618;5.130;2023-02-14T08:46:14;38.10;;;20.85;;
48727;SDS011;34527;45.618;5.130;2023-02-14T08:48:41;33.47;;;20.05;;
48727;SDS011;34527;45.618;5.130;2023-02-14T08:51:07;35.25;;;21.23;;
48727;SDS011;34527;45.618;5.130;2023-02-14T08:53:36;41.80;;;22.60;;
48727;SDS011;34527;45.618;5.130;2023-02-14T08:56:05;35.35;;;20.55;;
48727;SDS011;34527;45.618;5.130;2023-02-14T08:58:32;34.65;;;21.20;;
48727;SDS011;34527;45.618;5.130;2023-02-14T09:01:00;39.45;;;20.88;;
48727;SDS011;34527;45.618;5.130;2023-02-14T09:03:35;34.45;;;19.65;;
48727;SDS011;34527;45.618;5.130;2023-02-14T09:06:02;32.70;;;20.27;;
48727;SDS011;34527;45.618;5.130;2023-02-14T09:08:28;31.92;;;19.55;;
48727;SDS011;34527;45.618;5.130;2023-02-14T09:10:55;35.58;;;20.70;;
48727;SDS011;34527;45.618;5.130;2023-02-14T09:13:21;38.95;;;22.08;;
48727;SDS011;34527;45.618;5.130;2023-02-14T09:15:46;38.17;;;23.05;;
48727;SDS011;34527;45.618;5.130;2023-02-14T09:18:12;37.92;;;22.35;;
48727;SDS011;34527;45.618;5.130;2023-02-14T09:20:38;36.85;;;21.77;;
48727;SDS011;34527;45.618;5.130;2023-02-14T09:23:03;40.08;;;23.30;;
48727;SDS011;34527;45.618;5.130;2023-02-14T09:25:29;38.88;;;22.83;;
48727;SDS011;34527;45.618;5.130;2023-02-14T09:27:55;37.88;;;22.30;;
48727;SDS011;34527;45.618;5.130;2023-02-14T09:30:20;41.15;;;22.67;;
48727;SDS011;34527;45.618;5.130;2023-02-14T09:32:46;38.38;;;22.42;;
48727;SDS011;34527;45.618;5.130;2023-02-14T09:35:12;31.52;;;20.50;;
48727;SDS011;34527;45.618;5.130;2023-02-14T09:37:37;36.38;;;21.98;;
48727;SDS011;34527;45.618;5.130;2023-02-14T09:40:21;34.97;;;22.80;;
48727;SDS011;34527;45.618;5.130;2023-02-14T09:42:50;36.58;;;21.95;;
48727;SDS011;34527;45.618;5.130;2023-02-14T09:45:37;39.50;;;21.48;;
48727;SDS011;34527;45.618;5.130;2023-02-14T09:48:23;34.63;;;20.92;;
48727;SDS011;34527;45.618;5.130;2023-02-14T09:50:55;35.05;;;21.67;;
48727;SDS011;34527;45.618;5.130;2023-02-14T09:53:34;38.42;;;22.88;;
48727;SDS011;34527;45.618;5.130;2023-02-14T09:56:11;37.78;;;22.42;;
48727;SDS011;34527;45.618;5.130;2023-02-14T09:59:10;36.83;;;22.00;;
48727;SDS011;34527;45.618;5.130;2023-02-14T10:01:46;32.38;;;21.63;;
48727;SDS011;34527;45.618;5.130;2023-02-14T10:12:15;31.98;;;19.25;;
48727;SDS011;34527;45.618;5.130;2023-02-14T10:14:48;32.40;;;20.33;;
48727;SDS011;34527;45.618;5.130;2023-02-14T10:17:35;35.75;;;20.75;;
48727;SDS011;34527;45.618;5.130;2023-02-14T10:20:05;33.50;;;19.33;;
48727;SDS011;34527;45.618;5.130;2023-02-14T10:23:18;36.63;;;19.90;;
48727;SDS011;34527;45.618;5.130;2023-02-14T10:26:01;30.75;;;18.60;;
48727;SDS011;34527;45.618;5.130;2023-02-14T10:28:34;35.83;;;20.80;;
48727;SDS011;34527;45.618;5.130;2023-02-14T10:31:26;29.23;;;17.98;;
48727;SDS011;34527;45.618;5.130;2023-02-14T10:34:14;32.85;;;18.63;;
48727;SDS011;34527;45.618;5.130;2023-02-14T10:42:06;32.35;;;19.15;;
48727;SDS011;34527;45.618;5.130;2023-02-14T10:44:47;39.58;;;20.08;;
48727;SDS011;34527;45.618;5.130;2023-02-14T10:53:00;28.65;;;16.40;;
48727;SDS011;34527;45.618;5.130;2023-02-14T10:58:15;25.10;;;14.73;;
48727;SDS011;34527;45.618;5.130;2023-02-14T11:00:58;28.58;;;14.98;;
48727;SDS011;34527;45.618;5.130;2023-02-14T11:03:29;27.65;;;14.20;;
48727;SDS011;34527;45.618;5.130;2023-02-14T11:05:54;24.75;;;14.25;;
48727;SDS011;34527;45.618;5.130;2023-02-14T11:10:51;25.25;;;14.45;;
48727;SDS011;34527;45.618;5.130;2023-02-14T11:13:28;23.58;;;13.85;;
48727;SDS011;34527;45.618;5.130;2023-02-14T11:15:59;27.40;;;14.85;;
48727;SDS011;34527;45.618;5.130;2023-02-14T11:18:26;24.52;;;15.13;;
48727;SDS011;34527;45.618;5.130;2023-02-14T11:21:04;27.27;;;14.98;;
48727;SDS011;34527;45.618;5.130;2023-02-14T11:23:39;28.52;;;14.65;;
48727;SDS011;34527;45.618;5.130;2023-02-14T11:26:49;24.33;;;13.88;;
48727;SDS011;34527;45.618;5.130;2023-02-14T11:28:58;22.95;;;13.00;;
48727;SDS011;34527;45.618;5.130;2023-02-14T11:33:59;25.13;;;13.30;;
48727;SDS011;34527;45.618;5.130;2023-02-14T11:36:26;23.33;;;13.23;;
48727;SDS011;34527;45.618;5.130;2023-02-14T11:38:54;25.58;;;13.88;;
48727;SDS011;34527;45.618;5.130;2023-02-14T11:44:17;24.20;;;13.95;;
48727;SDS011;34527;45.618;5.130;2023-02-14T11:46:52;24.85;;;13.27;;
48727;SDS011;34527;45.618;5.130;2023-02-14T11:51:48;22.17;;;13.32;;
48727;SDS011;34527;45.618;5.130;2023-02-14T11:57:04;29.17;;;13.30;;
48727;SDS011;34527;45.618;5.130;2023-02-14T11:59:33;23.75;;;13.90;;
48727;SDS011;34527;45.618;5.130;2023-02-14T12:04:56;25.23;;;15.35;;
48727;SDS011;34527;45.618;5.130;2023-02-14T12:07:45;25.25;;;13.05;;
48727;SDS011;34527;45.618;5.130;2023-02-14T12:15:27;22.67;;;13.48;;
48727;SDS011;34527;45.618;5.130;2023-02-14T12:23:20;25.08;;;13.75;;
48727;SDS011;34527;45.618;5.130;2023-02-14T12:28:51;25.77;;;14.48;;
48727;SDS011;34527;45.618;5.130;2023-02-14T12:31:39;23.25;;;14.27;;
48727;SDS011;34527;45.618;5.130;2023-02-14T12:34:08;22.70;;;13.73;;
48727;SDS011;34527;45.618;5.130;2023-02-14T12:58:58;15.48;;;10.05;;
48727;SDS011;34527;45.618;5.130;2023-02-14T13:04:31;16.63;;;11.00;;
48727;SDS011;34527;45.618;5.130;2023-02-14T13:18:57;16.92;;;10.07;;
48727;SDS011;34527;45.618;5.130;2023-02-14T13:21:28;18.20;;;10.00;;
48727;SDS011;34527;45.618;5.130;2023-02-14T13:26:46;15.68;;;10.25;;
48727;SDS011;34527;45.618;5.130;2023-02-14T13:29:19;17.63;;;9.35;;
48727;SDS011;34527;45.618;5.130;2023-02-14T13:31:50;14.32;;;9.25;;
48727;SDS011;34527;45.618;5.130;2023-02-14T13:36:54;17.52;;;10.18;;
48727;SDS011;34527;45.618;5.130;2023-02-14T13:39:24;16.52;;;9.50;;
48727;SDS011;34527;45.618;5.130;2023-02-14T13:41:51;14.30;;;8.82;;
48727;SDS011;34527;45.618;5.130;2023-02-14T13:47:25;13.48;;;8.60;;
48727;SDS011;34527;45.618;5.130;2023-02-14T13:49:55;12.98;;;8.52;;
48727;SDS011;34527;45.618;5.130;2023-02-14T13:55:22;13.32;;;8.50;;
48727;SDS011;34527;45.618;5.130;2023-02-14T13:58:05;12.55;;;8.10;;
48727;SDS011;34527;45.618;5.130;2023-02-14T14:00:43;13.10;;;8.23;;
48727;SDS011;34527;45.618;5.130;2023-02-14T14:06:02;15.23;;;9.13;;
48727;SDS011;34527;45.618;5.130;2023-02-14T14:08:35;14.45;;;9.18;;
48727;SDS011;34527;45.618;5.130;2023-02-14T14:11:04;13.70;;;9.27;;
48727;SDS011;34527;45.618;5.130;2023-02-14T14:16:55;14.65;;;8.80;;
48727;SDS011;34527;45.618;5.130;2023-02-14T14:24:28;13.80;;;8.65;;
48727;SDS011;34527;45.618;5.130;2023-02-14T14:27:02;13.13;;;7.93;;
48727;SDS011;34527;45.618;5.130;2023-02-14T14:29:49;13.68;;;7.80;;
48727;SDS011;34527;45.618;5.130;2023-02-14T14:32:18;13.07;;;8.20;;
48727;SDS011;34527;45.618;5.130;2023-02-14T14:34:50;13.23;;;8.68;;
48727;SDS011;34527;45.618;5.130;2023-02-14T14:37:28;13.07;;;8.00;;
48727;SDS011;34527;45.618;5.130;2023-02-14T14:39:59;13.88;;;8.02;;
48727;SDS011;34527;45.618;5.130;2023-02-14T14:42:32;14.82;;;8.20;;
48727;SDS011;34527;45.618;5.130;2023-02-14T14:45:06;11.43;;;7.30;;
48727;SDS011;34527;45.618;5.130;2023-02-14T14:47:43;10.60;;;7.07;;
48727;SDS011;34527;45.618;5.130;2023-02-14T14:50:23;14.15;;;8.45;;
48727;SDS011;34527;45.618;5.130;2023-02-14T14:52:59;11.93;;;7.95;;
48727;SDS011;34527;45.618;5.130;2023-02-14T14:55:30;11.13;;;6.95;;
48727;SDS011;34527;45.618;5.130;2023-02-14T14:58:00;13.00;;;7.75;;
48727;SDS011;34527;45.618;5.130;2023-02-14T15:00:35;13.25;;;7.75;;
48727;SDS011;34527;45.618;5.130;2023-02-14T15:03:11;11.97;;;8.13;;
48727;SDS011;34527;45.618;5.130;2023-02-14T15:05:42;11.63;;;7.85;;
48727;SDS011;34527;45.618;5.130;2023-02-14T15:13:37;12.43;;;7.65;;
48727;SDS011;34527;45.618;5.130;2023-02-14T15:18:57;14.55;;;8.35;;
48727;SDS011;34527;45.618;5.130;2023-02-14T15:21:24;15.80;;;8.40;;
48727;SDS011;34527;45.618;5.130;2023-02-14T15:23:51;13.25;;;8.48;;
48727;SDS011;34527;45.618;5.130;2023-02-14T15:26:21;12.90;;;8.77;;
48727;SDS011;34527;45.618;5.130;2023-02-14T15:28:54;14.82;;;8.52;;
48727;SDS011;34527;45.618;5.130;2023-02-14T15:31:23;15.30;;;8.80;;
48727;SDS011;34527;45.618;5.130;2023-02-14T15:33:51;15.23;;;9.23;;
48727;SDS011;34527;45.618;5.130;2023-02-14T15:36:18;14.55;;;8.15;;
48727;SDS011;34527;45.618;5.130;2023-02-14T15:38:48;15.55;;;9.20;;
48727;SDS011;34527;45.618;5.130;2023-02-14T15:41:14;16.27;;;9.07;;
48727;SDS011;34527;45.618;5.130;2023-02-14T15:43:41;17.58;;;9.73;;
48727;SDS011;34527;45.618;5.130;2023-02-14T15:46:14;16.48;;;9.45;;
48727;SDS011;34527;45.618;5.130;2023-02-14T15:48:51;17.15;;;10.23;;
48727;SDS011;34527;45.618;5.130;2023-02-14T15:51:22;24.15;;;11.73;;
48727;SDS011;34527;45.618;5.130;2023-02-14T15:53:52;19.60;;;9.93;;
48727;SDS011;34527;45.618;5.130;2023-02-14T15:56:20;20.95;;;11.23;;
48727;SDS011;34527;45.618;5.130;2023-02-14T15:59:02;18.63;;;10.55;;
48727;SDS011;34527;45.618;5.130;2023-02-14T16:01:36;23.50;;;12.70;;
48727;SDS011;34527;45.618;5.130;2023-02-14T16:04:03;23.65;;;13.07;;
48727;SDS011;34527;45.618;5.130;2023-02-14T16:09:01;22.95;;;12.57;;
48727;SDS011;34527;45.618;5.130;2023-02-14T16:11:32;19.45;;;11.10;;
48727;SDS011;34527;45.618;5.130;2023-02-14T16:14:18;21.70;;;12.30;;
48727;SDS011;34527;45.618;5.130;2023-02-14T16:17:04;26.70;;;15.32;;
48727;SDS011;34527;45.618;5.130;2023-02-14T16:19:32;19.95;;;12.98;;
48727;SDS011;34527;45.618;5.130;2023-02-14T16:21:59;27.00;;;14.05;;
48727;SDS011;34527;45.618;5.130;2023-02-14T16:24:25;21.63;;;12.63;;
48727;SDS011;34527;45.618;5.130;2023-02-14T16:26:50;19.67;;;12.65;;
48727;SDS011;34527;45.618;5.130;2023-02-14T16:29:17;20.10;;;11.55;;
48727;SDS011;34527;45.618;5.130;2023-02-14T16:31:47;18.00;;;11.20;;
48727;SDS011;34527;45.618;5.130;2023-02-14T16:34:15;22.92;;;13.30;;
48727;SDS011;34527;45.618;5.130;2023-02-14T16:36:41;18.50;;;12.15;;
48727;SDS011;34527;45.618;5.130;2023-02-14T16:39:20;18.77;;;12.73;;
48727;SDS011;34527;45.618;5.130;2023-02-14T16:41:50;20.08;;;11.68;;
48727;SDS011;34527;45.618;5.130;2023-02-14T16:44:18;19.92;;;12.13;;
48727;SDS011;34527;45.618;5.130;2023-02-14T16:46:44;20.35;;;12.73;;
48727;SDS011;34527;45.618;5.130;2023-02-14T16:49:11;18.50;;;11.85;;
48727;SDS011;34527;45.618;5.130;2023-02-14T16:51:38;21.10;;;12.30;;
48727;SDS011;34527;45.618;5.130;2023-02-14T16:54:11;21.98;;;13.40;;
48727;SDS011;34527;45.618;5.130;2023-02-14T16:59:16;23.00;;;13.32;;
48727;SDS011;34527;45.618;5.130;2023-02-14T17:01:42;22.98;;;13.70;;
48727;SDS011;34527;45.618;5.130;2023-02-14T17:04:08;22.27;;;14.13;;
48727;SDS011;34527;45.618;5.130;2023-02-14T17:06:34;25.48;;;15.73;;
48727;SDS011;34527;45.618;5.130;2023-02-14T17:09:03;23.40;;;13.88;;
48727;SDS011;34527;45.618;5.130;2023-02-14T17:11:34;19.25;;;11.75;;
48727;SDS011;34527;45.618;5.130;2023-02-14T17:14:04;22.98;;;12.77;;
48727;SDS011;34527;45.618;5.130;2023-02-14T17:16:30;24.23;;;12.93;;
48727;SDS011;34527;45.618;5.130;2023-02-14T17:18:56;22.92;;;13.35;;
48727;SDS011;34527;45.618;5.130;2023-02-14T17:21:22;21.17;;;13.23;;
48727;SDS011;34527;45.618;5.130;2023-02-14T17:23:48;34.47;;;20.63;;
48727;SDS011;34527;45.618;5.130;2023-02-14T17:26:14;28.02;;;16.60;;
48727;SDS011;34527;45.618;5.130;2023-02-14T17:28:42;35.05;;;24.15;;
48727;SDS011;34527;45.618;5.130;2023-02-14T17:31:08;25.42;;;16.65;;
48727;SDS011;34527;45.618;5.130;2023-02-14T17:33:33;59.30;;;34.63;;